Terminal Aerodrome Forecast
Issued by NWS

Home | Current Version | Previous Version | Text Only | Print | Product List | Glossary On
Versions: 1 2 3 4 5 6 7 8 9 10 11 12 13 14 15 16 17 18 19 20
789
FTUS46 KSGX 200540
TAFSNA
TAF
KSNA 200540Z 2006/2106 VRB04KT P6SM BKN025
     FM201700 18006KT P6SM SCT030 BKN050=

USA.gov is the U.S. government's official web portal to all federal, state and local government web resources and services.